createdAt,value
2019-05-30T00:00:52.094Z,99.90
2019-05-30T00:03:33.831Z,99.90
2019-05-30T00:06:04.588Z,99.90
2019-05-30T00:08:54.346Z,99.90
2019-05-30T00:11:44.485Z,99.90
2019-05-30T00:14:33.349Z,99.90
2019-05-30T00:19:56.703Z,99.90
2019-05-30T00:22:37.731Z,99.90
2019-05-30T00:25:19.447Z,99.90
2019-05-30T00:30:43.162Z,99.90
2019-05-30T00:33:24.499Z,99.90
2019-05-30T00:36:06.146Z,99.90
2019-05-30T00:41:29.849Z,99.90
2019-05-30T00:46:53.380Z,99.90
2019-05-30T00:49:34.896Z,99.90
2019-05-30T00:52:16.286Z,99.90
2019-05-30T00:54:58.455Z,99.90
2019-05-30T00:57:39.797Z,99.90
2019-05-30T01:00:21.620Z,99.90
2019-05-30T01:03:04.809Z,99.90
2019-05-30T01:05:46.122Z,99.90
2019-05-30T01:08:27.825Z,99.90
2019-05-30T01:11:09.448Z,99.90
2019-05-30T01:13:51.008Z,99.90
2019-05-30T01:16:32.166Z,99.90
2019-05-30T01:19:13.688Z,99.90
2019-05-30T01:21:55.478Z,99.90
2019-05-30T01:24:36.598Z,99.90
2019-05-30T01:27:17.866Z,99.90
2019-05-30T01:29:59.454Z,99.90
2019-05-30T01:32:40.494Z,99.90
2019-05-30T01:35:21.966Z,99.90
2019-05-30T01:38:03.972Z,99.90
2019-05-30T01:43:27.878Z,99.90
2019-05-30T01:46:09.382Z,99.90
2019-05-30T01:48:50.642Z,99.90
2019-05-30T01:51:31.493Z,99.90
2019-05-30T01:54:12.337Z,99.90
2019-05-30T01:56:53.734Z,99.90
2019-05-30T01:59:35.852Z,99.90
2019-05-30T02:02:16.935Z,99.90
2019-05-30T02:04:58.852Z,99.90
2019-05-30T02:07:40.252Z,99.90
2019-05-30T02:13:25.167Z,99.90
2019-05-30T02:16:06.236Z,99.90
2019-05-30T02:18:47.778Z,99.90
2019-05-30T02:21:29.519Z,99.90
2019-05-30T02:24:12.231Z,99.90
2019-05-30T02:26:54.018Z,99.90
2019-05-30T02:29:35.743Z,99.90
2019-05-30T02:32:15.680Z,99.90
2019-05-30T02:35:05.328Z,99.90
2019-05-30T02:37:55.147Z,99.90
2019-05-30T02:40:43.878Z,99.90
2019-05-30T02:43:32.983Z,99.90
2019-05-30T02:46:21.755Z,99.90
2019-05-30T02:49:11.872Z,99.90
2019-05-30T02:52:02.626Z,99.90
2019-05-30T02:54:51.623Z,99.90
2019-05-30T02:57:40.380Z,99.90
2019-05-30T03:00:48.488Z,99.90
2019-05-30T03:03:37.290Z,99.90
2019-05-30T03:06:26.052Z,99.90
2019-05-30T03:09:14.807Z,99.90
2019-05-30T03:12:04.244Z,99.90
2019-05-30T03:14:54.176Z,99.90
2019-05-30T03:17:42.934Z,99.90
2019-05-30T03:20:24.306Z,99.90
2019-05-30T03:22:54.280Z,99.90
2019-05-30T03:25:35.532Z,99.90
2019-05-30T03:28:07.131Z,99.90
2019-05-30T03:30:48.840Z,99.90
2019-05-30T03:33:39.385Z,99.90
2019-05-30T03:36:24.173Z,99.90
2019-05-30T03:38:55.632Z,99.90
2019-05-30T03:41:37.099Z,99.90
2019-05-30T03:44:19.743Z,99.90
2019-05-30T03:47:01.269Z,99.90
2019-05-30T03:49:42.556Z,99.90
2019-05-30T03:52:24.067Z,99.90
2019-05-30T03:54:54.139Z,99.90
2019-05-30T04:08:06.888Z,99.90
2019-05-30T04:11:16.872Z,99.90
2019-05-30T04:14:06.922Z,99.90
2019-05-30T04:16:56.815Z,99.90
2019-05-30T04:19:45.587Z,99.90
2019-05-30T04:22:34.381Z,99.90
2019-05-30T04:25:23.114Z,99.90
2019-05-30T04:28:14.008Z,99.90
2019-05-30T04:31:03.108Z,99.90
2019-05-30T04:33:44.901Z,99.90
2019-05-30T04:39:08.908Z,99.90
2019-05-30T04:41:50.839Z,99.90
2019-05-30T04:44:31.965Z,99.90
2019-05-30T04:47:14.257Z,99.90
2019-05-30T04:49:56.605Z,99.90
2019-05-30T04:52:38.133Z,99.90
2019-05-30T04:55:21.076Z,99.90
2019-05-30T04:58:01.799Z,99.90
2019-05-30T05:00:43.338Z,99.90
2019-05-30T05:03:44.252Z,99.90
2019-05-30T05:06:07.399Z,99.90
2019-05-30T05:08:49.138Z,99.90
2019-05-30T05:11:30.446Z,99.90
2019-05-30T05:14:01.328Z,99.90
2019-05-30T05:16:50.091Z,99.90
2019-05-30T05:19:38.857Z,99.90
2019-05-30T05:22:27.603Z,99.90
2019-05-30T05:25:17.437Z,99.90
2019-05-30T05:28:06.766Z,99.90
2019-05-30T05:30:55.545Z,99.90
2019-05-30T05:33:36.521Z,99.90
2019-05-30T05:36:18.834Z,99.90
2019-05-30T05:39:00.148Z,99.90
2019-05-30T05:41:41.326Z,99.90
2019-05-30T05:44:22.999Z,99.90
2019-05-30T05:47:04.118Z,99.90
2019-05-30T05:49:45.290Z,99.90
2019-05-30T05:52:25.121Z,99.90
2019-05-30T05:55:13.958Z,99.90
2019-05-30T05:58:04.348Z,99.90
2019-05-30T06:00:53.501Z,99.90
2019-05-30T06:03:43.100Z,99.90
2019-05-30T06:06:32.277Z,99.90
2019-05-30T06:09:20.985Z,99.90
2019-05-30T06:12:09.737Z,99.90
2019-05-30T06:14:58.445Z,99.90
2019-05-30T06:17:47.198Z,99.90
2019-05-30T06:20:35.949Z,99.90
2019-05-30T06:23:25.706Z,99.90
2019-05-30T06:26:15.058Z,99.90
2019-05-30T06:29:03.843Z,99.90
2019-05-30T06:31:53.138Z,99.90
2019-05-30T06:34:39.380Z,99.90
2019-05-30T06:37:16.359Z,99.90
2019-05-30T06:39:58.134Z,99.90
2019-05-30T06:42:39.810Z,99.90
2019-05-30T06:45:23.655Z,99.90
2019-05-30T06:48:05.232Z,99.90
2019-05-30T06:50:46.874Z,99.90
2019-05-30T06:53:29.261Z,99.90
2019-05-30T06:56:11.169Z,99.90
2019-05-30T07:01:52.391Z,99.90
2019-05-30T07:04:50.373Z,99.90
2019-05-30T07:07:15.206Z,99.90
2019-05-30T07:10:04.720Z,99.90
2019-05-30T07:12:53.475Z,99.90
2019-05-30T07:15:42.366Z,99.90
2019-05-30T07:18:13.206Z,99.90
2019-05-30T07:21:02.783Z,99.90
2019-05-30T07:23:51.546Z,99.90
2019-05-30T07:26:40.709Z,99.90
2019-05-30T07:29:30.005Z,99.90
2019-05-30T07:32:20.364Z,99.90
2019-05-30T07:35:30.023Z,99.90
2019-05-30T07:38:19.737Z,99.90
2019-05-30T07:41:09.427Z,99.90
2019-05-30T07:43:51.195Z,99.90
2019-05-30T07:46:33.014Z,99.90
2019-05-30T07:49:14.249Z,99.90
2019-05-30T07:51:55.290Z,99.90
2019-05-30T07:54:36.738Z,99.90
2019-05-30T07:57:18.855Z,99.90
2019-05-30T08:00:00.410Z,99.90
2019-05-30T08:02:31.517Z,99.90
2019-05-30T08:05:24.462Z,99.90
2019-05-30T08:07:52.466Z,99.90
2019-05-30T08:10:41.255Z,99.90
2019-05-30T08:13:31.080Z,99.90
2019-05-30T08:16:02.029Z,99.90
2019-05-30T08:18:50.826Z,99.90
2019-05-30T08:21:39.599Z,99.90
2019-05-30T08:24:28.346Z,99.90
2019-05-30T08:27:17.143Z,99.90
2019-05-30T08:29:47.511Z,99.90
2019-05-30T08:32:36.921Z,99.90
2019-05-30T08:35:39.280Z,99.90
2019-05-30T08:38:16.727Z,99.90
2019-05-30T08:41:05.543Z,99.90
2019-05-30T08:43:54.275Z,99.90
2019-05-30T08:46:43.536Z,99.90
2019-05-30T08:49:25.064Z,99.90
2019-05-30T08:51:55.421Z,99.90
2019-05-30T08:54:44.994Z,99.90
2019-05-30T08:57:35.047Z,99.90
2019-05-30T09:00:24.668Z,99.90
2019-05-30T09:03:13.409Z,99.90
2019-05-30T09:05:59.328Z,99.90
2019-05-30T09:08:33.692Z,99.90
2019-05-30T09:11:22.478Z,99.90
2019-05-30T09:14:11.640Z,99.90
2019-05-30T09:17:00.836Z,99.90
2019-05-30T09:19:50.000Z,99.90
2019-05-30T09:22:20.347Z,99.90
2019-05-30T09:25:10.101Z,99.90
2019-05-30T09:27:59.297Z,99.90
2019-05-30T09:30:48.514Z,99.90
2019-05-30T09:33:39.835Z,99.90
2019-05-30T09:36:29.394Z,99.90
2019-05-30T09:39:18.578Z,99.50
2019-05-30T09:42:07.341Z,99.90
2019-05-30T09:44:51.020Z,99.90
2019-05-30T09:47:31.154Z,99.90
2019-05-30T09:50:13.026Z,99.90
2019-05-30T09:52:54.690Z,99.90
2019-05-30T09:55:35.791Z,99.90
2019-05-30T09:58:17.181Z,99.90
2019-05-30T10:01:00.506Z,99.90
2019-05-30T10:03:43.629Z,99.90
2019-05-30T10:06:29.401Z,99.90
2019-05-30T10:09:08.353Z,99.90
2019-05-30T10:15:02.599Z,99.90
2019-05-30T10:17:45.565Z,99.90
2019-05-30T10:20:26.804Z,99.90
2019-05-30T10:23:07.738Z,99.90
2019-05-30T10:25:49.554Z,99.90
2019-05-30T10:28:30.861Z,99.90
2019-05-30T10:31:12.350Z,99.90
2019-05-30T10:33:53.836Z,99.90
2019-05-30T10:36:43.804Z,99.90
2019-05-30T10:39:16.973Z,99.90
2019-05-30T10:42:06.055Z,97.80
2019-05-30T10:44:49.375Z,99.70
2019-05-30T10:47:30.781Z,98.10
2019-05-30T10:50:12.252Z,99.90
2019-05-30T10:52:53.890Z,99.90
2019-05-30T10:55:35.431Z,99.90
2019-05-30T10:58:17.012Z,99.90
2019-05-30T11:00:59.109Z,99.90
2019-05-30T11:03:40.322Z,99.90
2019-05-30T11:06:22.258Z,99.90
2019-05-30T11:09:03.920Z,99.90
2019-05-30T11:11:46.604Z,99.90
2019-05-30T11:14:28.390Z,99.90
2019-05-30T11:17:09.951Z,99.90
2019-05-30T11:19:51.761Z,99.90
2019-05-30T11:22:33.533Z,99.90
2019-05-30T11:25:15.165Z,99.90
2019-05-30T11:27:56.920Z,99.90
2019-05-30T11:30:38.699Z,99.90
2019-05-30T11:33:20.451Z,99.90
2019-05-30T11:36:01.523Z,99.80
2019-05-30T11:38:43.479Z,99.70
2019-05-30T11:41:24.636Z,99.70
2019-05-30T11:44:06.210Z,99.90
2019-05-30T11:46:47.707Z,99.90
2019-05-30T11:49:29.241Z,99.90
2019-05-30T11:55:08.707Z,99.90
2019-05-30T11:57:50.165Z,98.10
2019-05-30T12:00:31.728Z,99.90
2019-05-30T12:03:13.293Z,99.90
2019-05-30T12:05:55.148Z,99.90
2019-05-30T12:08:36.522Z,99.90
2019-05-30T12:11:18.010Z,99.90
2019-05-30T12:13:59.708Z,99.00
2019-05-30T12:16:41.014Z,99.10
2019-05-30T12:19:22.273Z,97.80
2019-05-30T12:22:03.891Z,98.10
2019-05-30T12:24:34.228Z,99.90
2019-05-30T12:27:22.965Z,98.80
2019-05-30T12:30:12.322Z,99.50
2019-05-30T12:33:02.464Z,98.40
2019-05-30T12:35:52.418Z,97.40
2019-05-30T12:38:42.274Z,97.60
2019-05-30T12:41:31.473Z,99.00
2019-05-30T12:44:20.654Z,99.90
2019-05-30T12:47:03.375Z,97.50
2019-05-30T12:49:45.522Z,94.60
2019-05-30T12:52:26.456Z,93.90
2019-05-30T12:55:08.089Z,93.60
2019-05-30T12:57:49.681Z,94.10
2019-05-30T13:00:31.182Z,92.30
2019-05-30T13:03:12.118Z,92.90
2019-05-30T13:05:54.942Z,92.90
2019-05-30T13:08:36.132Z,93.70
2019-05-30T13:11:17.558Z,92.40
2019-05-30T13:13:59.004Z,93.20
2019-05-30T13:16:28.863Z,94.40
2019-05-30T13:19:17.630Z,93.10
2019-05-30T13:22:07.478Z,92.00
2019-05-30T13:24:57.520Z,94.50
2019-05-30T13:27:47.283Z,94.00
2019-05-30T13:30:36.002Z,94.30
2019-05-30T13:33:24.761Z,94.40
2019-05-30T13:36:13.601Z,94.40
2019-05-30T13:39:03.255Z,93.50
2019-05-30T13:41:53.142Z,92.30
2019-05-30T13:44:42.213Z,92.70
2019-05-30T13:47:30.935Z,92.90
2019-05-30T13:50:20.003Z,90.60
2019-05-30T13:53:09.875Z,90.70
2019-05-30T13:55:59.299Z,91.20
2019-05-30T13:58:49.584Z,91.00
2019-05-30T14:01:38.299Z,93.00
2019-05-30T14:04:27.026Z,93.00
2019-05-30T14:07:15.734Z,93.50
2019-05-30T14:10:06.321Z,93.70
2019-05-30T14:12:55.539Z,95.20
2019-05-30T14:15:44.275Z,95.20
2019-05-30T14:18:33.206Z,96.90
2019-05-30T14:21:22.460Z,95.50
2019-05-30T14:24:11.562Z,94.80
2019-05-30T14:27:01.381Z,92.80
2019-05-30T14:29:51.688Z,92.90
2019-05-30T14:32:40.548Z,92.90
2019-05-30T14:35:29.799Z,93.80
2019-05-30T14:38:18.519Z,93.50
2019-05-30T14:41:07.294Z,91.60
2019-05-30T14:43:56.036Z,91.90
2019-05-30T14:46:45.122Z,92.50
2019-05-30T14:49:34.262Z,91.60
2019-05-30T14:52:23.047Z,92.60
2019-05-30T14:55:13.261Z,90.40
2019-05-30T14:58:03.207Z,90.90
2019-05-30T15:00:43.178Z,91.20
2019-05-30T15:03:31.906Z,92.50
2019-05-30T15:06:21.130Z,91.70
2019-05-30T15:09:20.180Z,89.60
2019-05-30T15:12:00.624Z,90.60
2019-05-30T15:14:49.893Z,91.20
2019-05-30T15:17:39.119Z,90.60
2019-05-30T15:20:27.865Z,89.80
2019-05-30T15:23:17.209Z,90.20
2019-05-30T15:26:06.070Z,90.20
2019-05-30T15:28:54.934Z,89.90
2019-05-30T15:31:44.139Z,90.40
2019-05-30T15:34:32.919Z,88.60
2019-05-30T15:37:21.684Z,88.80
2019-05-30T15:43:38.791Z,86.70
2019-05-30T15:46:27.574Z,85.70
2019-05-30T15:49:16.467Z,88.70
2019-05-30T15:52:05.272Z,89.40
2019-05-30T15:54:54.428Z,85.00
2019-05-30T15:57:43.319Z,83.90
2019-05-30T16:00:24.599Z,85.40
2019-05-30T16:02:54.459Z,84.80
2019-05-30T16:05:43.171Z,83.90
2019-05-30T16:08:32.348Z,85.10
2019-05-30T16:11:21.318Z,84.20
2019-05-30T16:14:11.491Z,85.10
2019-05-30T16:17:00.747Z,83.50
2019-05-30T16:19:49.493Z,84.70
2019-05-30T16:22:38.316Z,83.90
2019-05-30T16:25:26.988Z,80.80
2019-05-30T16:28:15.914Z,80.90
2019-05-30T16:31:04.613Z,80.30
2019-05-30T16:33:54.433Z,78.10
2019-05-30T16:36:44.695Z,81.00
2019-05-30T16:39:34.099Z,80.70
2019-05-30T16:42:22.847Z,80.60
2019-05-30T16:45:31.914Z,83.60
2019-05-30T16:48:20.760Z,79.20
2019-05-30T16:51:09.511Z,80.90
2019-05-30T16:53:58.726Z,79.10
2019-05-30T16:56:47.478Z,81.50
2019-05-30T16:59:28.644Z,79.20
2019-05-30T17:04:52.207Z,80.30
2019-05-30T17:07:33.683Z,79.00
2019-05-30T17:10:23.389Z,78.90
2019-05-30T17:15:41.254Z,81.30
2019-05-30T17:18:22.525Z,80.30
2019-05-30T17:21:03.745Z,80.90
2019-05-30T17:26:17.053Z,84.10
2019-05-30T17:29:07.376Z,81.70
2019-05-30T17:31:56.156Z,80.60
2019-05-30T17:34:44.947Z,82.70
2019-05-30T17:37:34.151Z,83.10
2019-05-30T17:40:39.347Z,84.20
2019-05-30T17:43:13.983Z,87.10
2019-05-30T17:46:02.786Z,85.20
2019-05-30T17:48:51.523Z,84.50
2019-05-30T17:51:40.753Z,86.70
2019-05-30T17:54:30.073Z,85.70
2019-05-30T17:57:19.931Z,86.00
2019-05-30T18:00:02.705Z,86.70
2019-05-30T18:02:43.554Z,84.50
2019-05-30T18:05:25.118Z,83.50
2019-05-30T18:08:06.564Z,85.00
2019-05-30T18:10:53.720Z,86.70
2019-05-30T18:13:31.285Z,89.80
2019-05-30T18:16:12.979Z,89.60
2019-05-30T18:18:55.011Z,89.60
2019-05-30T18:21:36.805Z,90.90
2019-05-30T18:24:18.253Z,90.90
2019-05-30T18:27:00.392Z,92.10
2019-05-30T18:29:42.394Z,93.60
2019-05-30T18:32:24.302Z,94.10
2019-05-30T18:35:05.706Z,94.40
2019-05-30T18:37:47.430Z,95.30
2019-05-30T18:40:30.883Z,97.10
2019-05-30T18:43:13.474Z,98.30
2019-05-30T18:45:55.325Z,99.60
2019-05-30T18:48:37.272Z,99.90
2019-05-30T18:51:19.337Z,99.90
2019-05-30T18:56:44.010Z,99.90
2019-05-30T18:59:25.042Z,99.90
2019-05-30T19:02:07.354Z,99.90
2019-05-30T19:04:48.404Z,99.90
2019-05-30T19:07:30.849Z,99.90
2019-05-30T19:10:13.227Z,99.90
2019-05-30T19:12:55.209Z,99.90
2019-05-30T19:15:37.945Z,99.90
2019-05-30T19:18:20.998Z,99.90
2019-05-30T19:21:03.371Z,99.90
2019-05-30T19:23:44.578Z,99.90
2019-05-30T19:26:26.252Z,99.90
2019-05-30T19:29:08.751Z,99.90
2019-05-30T19:31:50.230Z,99.90
2019-05-30T19:34:32.772Z,99.90
2019-05-30T19:37:14.391Z,99.90
2019-05-30T19:39:56.128Z,99.90
2019-05-30T19:42:38.196Z,99.90
2019-05-30T19:45:19.439Z,99.90
2019-05-30T19:48:01.818Z,99.90
2019-05-30T19:50:43.965Z,99.90
2019-05-30T19:53:25.248Z,99.90
2019-05-30T19:55:55.537Z,99.90
2019-05-30T19:58:56.614Z,99.90
2019-05-30T20:01:35.843Z,99.90
2019-05-30T20:04:18.637Z,99.90
2019-05-30T20:06:59.895Z,99.90
2019-05-30T20:09:41.694Z,99.90
2019-05-30T20:12:23.243Z,99.90
2019-05-30T20:15:04.978Z,99.90
2019-05-30T20:17:44.863Z,99.90
2019-05-30T20:20:49.335Z,99.90
2019-05-30T20:23:24.428Z,99.90
2019-05-30T20:26:13.228Z,99.90
2019-05-30T20:29:01.964Z,99.90
2019-05-30T20:31:50.721Z,99.90
2019-05-30T20:34:40.587Z,99.90
2019-05-30T20:40:38.874Z,99.90
2019-05-30T20:43:31.168Z,99.90
2019-05-30T20:46:23.529Z,99.90
2019-05-30T20:49:12.372Z,99.90
2019-05-30T20:52:01.633Z,99.90
2019-05-30T20:58:00.235Z,99.90
2019-05-30T21:00:49.572Z,99.90
2019-05-30T21:06:27.486Z,99.90
2019-05-30T21:09:27.447Z,99.90
2019-05-30T21:11:52.365Z,99.90
2019-05-30T21:14:35.334Z,99.90
2019-05-30T21:17:17.143Z,99.90
2019-05-30T21:19:58.558Z,99.90
2019-05-30T21:22:40.337Z,99.90
2019-05-30T21:25:21.726Z,99.90
2019-05-30T21:28:03.446Z,99.90
2019-05-30T21:30:45.445Z,99.90
2019-05-30T21:33:26.680Z,99.90
2019-05-30T21:36:08.028Z,99.90
2019-05-30T21:38:49.685Z,99.90
2019-05-30T21:41:31.608Z,99.90
2019-05-30T21:44:12.525Z,99.90
2019-05-30T21:46:53.939Z,99.90
2019-05-30T21:49:33.834Z,99.90
2019-05-30T21:52:22.551Z,99.90
2019-05-30T21:55:11.525Z,99.90
2019-05-30T21:58:00.266Z,99.90
2019-05-30T22:01:08.425Z,99.90
2019-05-30T22:03:57.595Z,99.90
2019-05-30T22:06:46.830Z,99.90
2019-05-30T22:09:36.890Z,99.90
2019-05-30T22:12:25.638Z,99.90
2019-05-30T22:15:06.619Z,99.90
2019-05-30T22:17:48.298Z,99.90
2019-05-30T22:20:29.918Z,99.90
2019-05-30T22:26:23.447Z,99.90
2019-05-30T22:29:05.042Z,99.90
2019-05-30T22:31:46.706Z,99.90
2019-05-30T22:34:28.224Z,99.90
2019-05-30T22:37:09.787Z,99.90
2019-05-30T22:39:51.090Z,99.90
2019-05-30T22:42:32.620Z,99.90
2019-05-30T22:45:14.690Z,99.90
2019-05-30T22:47:56.814Z,99.90
2019-05-30T22:50:36.710Z,99.90
2019-05-30T22:53:26.100Z,99.90
2019-05-30T22:56:14.827Z,99.90
2019-05-30T22:59:03.814Z,99.90
2019-05-30T23:01:53.717Z,99.90
2019-05-30T23:04:43.400Z,99.90
2019-05-30T23:07:32.551Z,99.90
2019-05-30T23:10:21.711Z,99.90
2019-05-30T23:13:10.447Z,99.90
2019-05-30T23:15:59.542Z,99.90
2019-05-30T23:18:48.403Z,99.90
2019-05-30T23:21:37.244Z,99.90
2019-05-30T23:24:26.033Z,99.90
2019-05-30T23:27:14.838Z,99.90
2019-05-30T23:32:52.132Z,99.90
2019-05-30T23:35:34.876Z,99.90
2019-05-30T23:38:16.262Z,99.90
2019-05-30T23:40:59.134Z,99.90
2019-05-30T23:43:54.950Z,99.90
2019-05-30T23:46:23.712Z,99.90
2019-05-30T23:49:05.303Z,99.90
2019-05-30T23:51:47.001Z,99.90
2019-05-30T23:54:28.482Z,99.90
2019-05-30T23:57:10.099Z,99.90
2019-05-30T23:59:52.732Z,99.90
